Flight Information

DEPARTURE
WILLCOX, AZ
Elevation:
4187
Runways:
3/21 - 6095x75 - ASPH-G
CTAF:
122.800
DESTINATION
TUCSON, AZ
Elevation:
2418
TPA:
3218 (800)
Runways:
6L/24R - 4900x75 - ASPH-G
15/33 - 4010x75 - ASPH-F
6R/24L - 5500x75 - ASPH-G
Tower:
125.8


65.3 NM265° True-12° Var252° HDG

Flight Plan:
(click to file on line)

1. Type
2. Aircraft Identification
3. Aircraft Type / Special Equipment
4. True Airspeed
kts
5. Departure Airport
(ICAO code)
6. Arriving Airport
(ICAO code)
7. Cruising Altitude
ft
8. Alternate Airport
(ICAO code)
9. Route of Flight
10. Remarks


00:00:00 Departure ATIS: Destination ATIS:

Clearance Limit:
Route:
Altitude: Expect in minutes
Frequency:
Transponder: (7500 Hijack / 7600 Lost Comms / 7700 Emergency)


KSAD 181251Z AUTO 00000KT 10SM BKN070 OVC085 24/19 A3002 RMK AO2 SLP114 T02390194
Time: 2022-08-18T12:51:00Z
1660829306
Winds: calm
Visibility: 10.0 sm
Clouds (AGL): BKN 7000
OVC 8500
Temperature: 23.9 C
Dew Point: 19.4 C
Pressure: 30.02067 in Hgbr

KRYN 181253Z 00000KT 10SM CLR 22/21 A2997
Time: 2022-08-18T12:53:00Z
1660829306
Winds: calm
Visibility: 10.0 sm
Clouds (AGL): CLR
Temperature: 22.0 C
Dew Point: 21.0 C
Pressure: 29.970472 in Hgbr


Notes:

Data extracted from FAA Digital Chart Supplement. Effective: 0901Z Thursday, 27 JAN 2022 to 0900z Thursday, 24 MAR 2022
Current ATIS data is provided courtisy of PilotEdge.